Time;durP1;ratioP1;P1;durP2;ratioP2;P2;SDS_P1;SDS_P2;PMS_P1;PMS_P2;Temp;Humidity;BMP_temperature;BMP_pressure;BME280_temperature;BME280_humidity;BME280_pressure;Samples;Min_cycle;Max_cycle;Signal;HPM_P1;HPM_P2
2022/01/05 00:00:32;;;;;;;65.57;44.20;;;8.20;97.10;;;;;;5073130;28;20469;-72
2022/01/05 00:02:58;;;;;;;61.13;41.07;;;8.30;97.10;;;;;;5072798;28;20328;-72
2022/01/05 00:05:24;;;;;;;62.93;41.90;;;8.20;97.10;;;;;;5072676;28;20103;-72
2022/01/05 00:07:50;;;;;;;67.60;43.87;;;8.20;97.10;;;;;;5072980;28;20016;-72
2022/01/05 00:10:16;;;;;;;66.40;43.97;;;8.30;97.10;;;;;;5073204;28;20054;-71
2022/01/05 00:12:42;;;;;;;70.53;45.07;;;8.20;97.10;;;;;;5072905;28;20044;-72
2022/01/05 00:15:08;;;;;;;64.60;43.03;;;8.30;97.10;;;;;;5073198;28;20089;-73
2022/01/05 00:17:34;;;;;;;66.60;44.73;;;8.30;97.10;;;;;;5072759;28;20464;-72
2022/01/05 00:19:59;;;;;;;62.53;43.27;;;8.30;97.10;;;;;;5075399;28;20048;-72
2022/01/05 00:22:25;;;;;;;61.90;42.00;;;8.30;97.20;;;;;;5076930;28;20040;-72
2022/01/05 00:24:51;;;;;;;64.33;41.93;;;8.30;97.10;;;;;;5076796;28;20061;-72
2022/01/05 00:27:16;;;;;;;62.87;43.53;;;8.30;97.10;;;;;;5077026;28;20066;-72
2022/01/05 00:29:42;;;;;;;62.77;40.63;;;8.30;97.10;;;;;;5076860;28;20025;-72
2022/01/05 00:32:08;;;;;;;69.80;43.53;;;8.40;97.10;;;;;;5077016;28;20472;-72
2022/01/05 00:34:35;;;;;;;61.90;39.97;;;8.40;97.10;;;;;;5076598;28;20081;-72
2022/01/05 00:37:00;;;;;;;64.67;41.03;;;8.40;97.00;;;;;;5076764;28;20488;-72
2022/01/05 00:39:26;;;;;;;76.80;45.67;;;8.40;97.10;;;;;;5076893;28;20054;-72
2022/01/05 00:41:52;;;;;;;76.93;45.13;;;8.50;97.10;;;;;;5076695;28;20077;-72
2022/01/05 00:44:19;;;;;;;69.87;43.47;;;8.40;97.10;;;;;;5076370;28;20028;-72
2022/01/05 00:46:45;;;;;;;65.77;40.73;;;8.50;97.10;;;;;;5076627;28;20091;-72
2022/01/05 00:49:11;;;;;;;63.07;41.37;;;8.50;97.10;;;;;;5076314;28;20029;-72
2022/01/05 00:51:38;;;;;;;77.97;45.67;;;8.50;97.00;;;;;;5076359;28;20031;-72
2022/01/05 00:54:04;;;;;;;83.00;45.20;;;8.50;97.40;;;;;;5076254;28;20423;-72
2022/01/05 00:56:29;;;;;;;76.87;44.50;;;8.50;97.30;;;;;;5076252;28;20081;-72
2022/01/05 00:58:55;;;;;;;69.63;41.73;;;8.50;97.30;;;;;;5076420;28;20477;-72
2022/01/05 01:01:21;;;;;;;63.50;41.27;;;8.50;97.20;;;;;;5076326;28;20021;-72
2022/01/05 01:03:46;;;;;;;62.47;40.07;;;8.60;97.20;;;;;;5075920;28;20043;-71
2022/01/05 01:06:12;;;;;;;62.43;39.37;;;8.50;97.20;;;;;;5076182;28;20032;-72
2022/01/05 01:08:37;;;;;;;57.77;39.00;;;8.60;97.30;;;;;;5076167;28;20021;-72
2022/01/05 01:11:03;;;;;;;66.83;41.10;;;8.60;97.30;;;;;;5076230;28;20021;-72
2022/01/05 01:13:29;;;;;;;67.57;43.77;;;8.60;97.30;;;;;;5075928;28;20025;-72
2022/01/05 01:15:55;;;;;;;62.40;40.90;;;8.50;97.20;;;;;;5076128;28;20024;-72
2022/01/05 01:18:20;;;;;;;64.97;41.47;;;8.60;97.30;;;;;;5075699;28;20024;-72
2022/01/05 01:20:50;;;;;;;57.53;38.20;;;8.50;97.20;;;;;;5075632;28;20040;-72
2022/01/05 01:23:21;;;;;;;61.03;39.70;;;8.60;97.30;;;;;;5075687;28;20123;-73
2022/01/05 01:25:47;;;;;;;67.93;40.73;;;8.60;97.20;;;;;;5076231;28;20123;-72
2022/01/05 01:28:12;;;;;;;64.00;38.47;;;8.60;97.20;;;;;;5075765;28;20020;-72
2022/01/05 01:30:38;;;;;;;63.63;39.90;;;8.60;97.20;;;;;;5075677;28;20020;-72
2022/01/05 01:33:04;;;;;;;61.00;39.77;;;8.60;97.20;;;;;;5075468;28;20430;-72
2022/01/05 01:35:30;;;;;;;64.73;41.07;;;8.60;97.30;;;;;;5075451;28;20025;-72
2022/01/05 01:37:56;;;;;;;63.27;39.00;;;8.60;97.50;;;;;;5075725;28;20024;-73
2022/01/05 01:40:22;;;;;;;68.07;39.50;;;8.60;97.50;;;;;;5075633;28;20078;-72
2022/01/05 01:42:48;;;;;;;80.87;44.13;;;8.60;97.40;;;;;;5075480;28;20017;-72
2022/01/05 01:45:14;;;;;;;70.90;40.87;;;8.70;97.70;;;;;;5075482;28;20056;-74
2022/01/05 01:47:40;;;;;;;71.33;39.10;;;8.70;97.70;;;;;;5075594;28;20511;-72
2022/01/05 01:50:09;;;;;;;68.43;39.57;;;8.70;97.60;;;;;;5075539;28;20362;-72
2022/01/05 01:52:34;;;;;;;65.37;37.47;;;8.70;97.60;;;;;;5075399;28;20039;-72
2022/01/05 01:55:00;;;;;;;70.93;38.43;;;8.70;97.50;;;;;;5075290;28;20412;-72
2022/01/05 01:57:28;;;;;;;67.27;38.73;;;8.80;97.50;;;;;;5075241;28;20039;-72
2022/01/05 01:59:57;;;;;;;75.57;39.60;;;8.80;97.50;;;;;;5071677;28;20477;-72
2022/01/05 02:02:24;;;;;;;75.80;42.13;;;8.80;97.50;;;;;;5072233;28;20081;-72
2022/01/05 02:04:50;;;;;;;71.10;39.83;;;8.80;97.90;;;;;;5073313;28;20458;-72
2022/01/05 02:07:16;;;;;;;68.77;38.70;;;8.80;97.80;;;;;;5074709;28;20115;-72
2022/01/05 02:09:41;;;;;;;58.80;36.37;;;8.80;97.90;;;;;;5075032;28;20028;-72
2022/01/05 02:12:08;;;;;;;57.67;33.43;;;8.80;97.90;;;;;;5074851;28;20046;-74
2022/01/05 02:14:34;;;;;;;72.67;37.00;;;8.80;97.80;;;;;;5074461;28;20538;-72
2022/01/05 02:17:04;;;;;;;63.70;35.30;;;8.80;97.80;;;;;;5073529;28;20469;-72
2022/01/05 02:19:30;;;;;;;52.13;31.30;;;8.80;97.70;;;;;;5074678;28;20424;-72
2022/01/05 02:21:56;;;;;;;61.97;34.63;;;8.90;97.60;;;;;;5074344;28;20074;-72
2022/01/05 02:24:22;;;;;;;57.47;34.30;;;8.90;97.60;;;;;;5074488;28;20485;-73
2022/01/05 02:26:48;;;;;;;66.23;37.07;;;8.80;97.50;;;;;;5074747;28;20029;-72
2022/01/05 02:29:13;;;;;;;63.17;34.53;;;8.90;97.50;;;;;;5074164;28;20085;-71
2022/01/05 02:31:39;;;;;;;68.50;35.47;;;8.90;97.50;;;;;;5074344;28;20082;-71
2022/01/05 02:34:05;;;;;;;56.27;34.33;;;8.90;97.60;;;;;;5074559;28;20419;-72
2022/01/05 02:36:31;;;;;;;59.93;34.43;;;8.90;97.50;;;;;;5074549;28;20028;-72
2022/01/05 02:38:57;;;;;;;64.10;34.83;;;8.90;97.60;;;;;;5074643;28;20036;-72
2022/01/05 02:41:23;;;;;;;69.57;37.20;;;8.90;97.50;;;;;;5073698;28;20020;-72
2022/01/05 02:43:49;;;;;;;61.27;32.30;;;8.90;97.60;;;;;;5073795;28;20039;-72
2022/01/05 02:46:18;;;;;;;60.77;32.93;;;9.00;97.60;;;;;;5074358;28;20097;-72
2022/01/05 02:48:45;;;;;;;70.50;34.43;;;9.00;97.60;;;;;;5074092;28;20461;-72
2022/01/05 02:51:11;;;;;;;60.50;33.37;;;9.00;97.60;;;;;;5073965;28;20028;-72
2022/01/05 02:53:38;;;;;;;58.23;32.00;;;9.00;97.50;;;;;;5073860;28;20032;-71
2022/01/05 02:56:05;;;;;;;52.07;29.10;;;9.00;97.50;;;;;;5074033;28;20009;-72
2022/01/05 02:58:31;;;;;;;67.53;33.80;;;9.00;97.40;;;;;;5073635;28;20107;-72
2022/01/05 03:00:56;;;;;;;69.90;35.87;;;9.00;97.40;;;;;;5073676;28;20103;-72
2022/01/05 03:03:22;;;;;;;61.50;33.40;;;9.00;97.50;;;;;;5074026;28;20599;-72
2022/01/05 03:05:48;;;;;;;71.37;35.70;;;9.00;97.80;;;;;;5073878;28;20492;-72
2022/01/05 03:08:14;;;;;;;74.13;36.57;;;9.00;97.70;;;;;;5073724;28;20473;-72
2022/01/05 03:10:40;;;;;;;67.70;33.87;;;9.10;97.80;;;;;;5073761;28;20021;-72
2022/01/05 03:13:06;;;;;;;60.50;33.73;;;9.10;97.90;;;;;;5073562;28;20074;-72
2022/01/05 03:15:35;;;;;;;56.63;30.20;;;9.10;98.00;;;;;;5073531;28;20025;-72
2022/01/05 03:18:04;;;;;;;56.97;31.20;;;9.10;97.90;;;;;;5073491;28;20020;-72
2022/01/05 03:20:31;;;;;;;52.30;30.37;;;9.10;97.80;;;;;;5073584;28;20041;-72
2022/01/05 03:22:58;;;;;;;49.93;29.97;;;9.10;97.70;;;;;;5073583;28;20395;-72
2022/01/05 03:25:25;;;;;;;57.80;31.47;;;9.10;97.70;;;;;;5073232;28;20102;-71
2022/01/05 03:27:52;;;;;;;49.40;29.43;;;9.10;97.70;;;;;;5073601;28;20024;-72
2022/01/05 03:30:25;;;;;;;48.17;28.20;;;9.10;97.70;;;;;;5073458;28;20032;-72
2022/01/05 03:35:27;;;;;;;54.07;29.07;;;9.10;97.60;;;;;;5073066;28;20127;-72
2022/01/05 03:37:53;;;;;;;51.53;29.67;;;9.10;97.50;;;;;;5073222;28;20491;-72
2022/01/05 03:40:19;;;;;;;52.80;29.50;;;9.20;97.50;;;;;;5073351;28;20028;-72
2022/01/05 03:42:45;;;;;;;49.93;29.27;;;9.10;97.50;;;;;;5073162;28;20048;-72
2022/01/05 03:45:10;;;;;;;47.33;27.30;;;9.20;97.50;;;;;;5073358;28;20392;-72
2022/01/05 03:47:37;;;;;;;44.93;28.13;;;9.20;97.60;;;;;;5073416;28;20455;-72
2022/01/05 03:50:03;;;;;;;53.90;29.13;;;9.20;97.60;;;;;;5073331;28;20047;-71
2022/01/05 03:52:29;;;;;;;46.30;26.57;;;9.20;97.60;;;;;;5072915;28;20024;-72
2022/01/05 03:54:55;;;;;;;48.23;27.63;;;9.20;97.60;;;;;;5072387;28;20373;-72
2022/01/05 03:57:20;;;;;;;55.73;30.20;;;9.20;97.50;;;;;;5073510;28;20115;-72
2022/01/05 03:59:46;;;;;;;46.63;27.57;;;9.20;97.70;;;;;;5073264;28;20032;-72
2022/01/05 04:02:12;;;;;;;50.00;28.87;;;9.20;97.70;;;;;;5072844;28;20111;-73
2022/01/05 04:04:37;;;;;;;48.30;26.87;;;9.20;97.70;;;;;;5072708;28;20041;-72
2022/01/05 04:07:03;;;;;;;44.20;25.87;;;9.20;97.70;;;;;;5073045;28;20393;-72
2022/01/05 04:09:29;;;;;;;47.43;29.03;;;9.30;97.60;;;;;;5073054;28;20385;-73
2022/01/05 04:11:55;;;;;;;54.03;29.53;;;9.30;97.60;;;;;;5073144;28;20029;-72
2022/01/05 04:14:21;;;;;;;52.57;29.73;;;9.30;97.70;;;;;;5072891;28;20031;-71
2022/01/05 04:16:46;;;;;;;63.03;29.93;;;9.30;98.00;;;;;;5072944;28;20025;-72
2022/01/05 04:19:12;;;;;;;51.53;29.67;;;9.20;98.20;;;;;;5073039;28;20025;-72
2022/01/05 04:21:38;;;;;;;53.00;28.73;;;9.30;98.10;;;;;;5072752;28;20043;-72
2022/01/05 04:24:04;;;;;;;54.13;29.17;;;9.30;98.00;;;;;;5072898;28;20045;-72
2022/01/05 04:26:29;;;;;;;52.57;28.63;;;9.30;97.90;;;;;;5073022;28;20028;-72
2022/01/05 04:28:55;;;;;;;51.87;29.87;;;9.30;97.90;;;;;;5072701;28;20029;-73
2022/01/05 04:31:21;;;;;;;54.17;28.80;;;9.30;97.90;;;;;;5072460;28;20472;-72
2022/01/05 04:33:46;;;;;;;51.37;27.13;;;9.30;97.90;;;;;;5072737;28;20035;-72
2022/01/05 04:36:12;;;;;;;43.43;24.97;;;9.40;97.90;;;;;;5072676;28;20028;-72
2022/01/05 04:38:37;;;;;;;42.03;24.53;;;9.30;97.90;;;;;;5072917;28;20029;-73
2022/01/05 04:41:04;;;;;;;43.80;23.37;;;9.30;97.80;;;;;;5072785;28;20035;-72
2022/01/05 04:43:30;;;;;;;46.43;26.70;;;9.40;97.80;;;;;;5072641;28;20036;-72
2022/01/05 04:45:56;;;;;;;45.07;26.37;;;9.40;97.70;;;;;;5072879;28;20381;-72
2022/01/05 04:48:21;;;;;;;53.30;28.57;;;9.40;97.70;;;;;;5072944;28;20074;-72
2022/01/05 04:50:47;;;;;;;46.07;26.90;;;9.40;97.70;;;;;;5072444;28;20099;-72
2022/01/05 04:53:13;;;;;;;43.77;23.83;;;9.40;97.80;;;;;;5072927;28;20036;-72
2022/01/05 04:55:40;;;;;;;46.53;25.40;;;9.40;97.70;;;;;;5072928;28;20025;-70
2022/01/05 04:58:05;;;;;;;51.97;25.80;;;9.40;97.70;;;;;;5072446;28;20016;-72
2022/01/05 05:00:31;;;;;;;44.40;27.00;;;9.40;97.80;;;;;;5072401;28;20032;-72
2022/01/05 05:02:57;;;;;;;51.47;27.33;;;9.40;98.10;;;;;;5072819;28;20035;-72
2022/01/05 05:05:22;;;;;;;44.63;26.20;;;9.40;98.00;;;;;;5074093;28;20366;-72
2022/01/05 05:07:48;;;;;;;47.90;26.63;;;9.40;98.00;;;;;;5076189;28;20380;-72
2022/01/05 05:10:14;;;;;;;40.07;26.20;;;9.40;97.90;;;;;;5075938;28;20024;-72
2022/01/05 05:12:39;;;;;;;41.63;26.17;;;9.40;97.80;;;;;;5076148;28;20103;-72
2022/01/05 05:15:05;;;;;;;41.67;26.97;;;9.40;97.70;;;;;;5075853;28;20103;-72
2022/01/05 05:17:31;;;;;;;43.67;27.20;;;9.50;97.70;;;;;;5076158;28;20025;-72
2022/01/05 05:19:57;;;;;;;42.13;25.70;;;9.50;97.60;;;;;;5075687;28;20048;-72
2022/01/05 05:22:22;;;;;;;44.58;24.27;;;9.50;97.60;;;;;;5075972;28;20117;-72
2022/01/05 05:24:48;;;;;;;43.60;24.88;;;9.50;97.60;;;;;;5075631;28;20032;-72
2022/01/05 05:27:14;;;;;;;50.90;26.17;;;9.50;98.20;;;;;;5075965;28;20452;-72
2022/01/05 05:29:39;;;;;;;38.43;24.40;;;9.50;98.10;;;;;;5075739;28;20051;-72
2022/01/05 05:32:06;;;;;;;39.25;24.25;;;9.50;97.90;;;;;;5074499;28;20017;-72
2022/01/05 05:34:31;;;;;;;46.10;25.23;;;9.50;97.90;;;;;;5075532;28;20062;-72
2022/01/05 05:36:57;;;;;;;47.40;24.20;;;9.50;98.10;;;;;;5075838;28;20024;-72
2022/01/05 05:39:23;;;;;;;47.13;24.03;;;9.50;98.00;;;;;;5075700;28;20594;-72
2022/01/05 05:41:49;;;;;;;44.13;24.03;;;9.50;97.90;;;;;;5075720;28;20346;-71
2022/01/05 05:44:14;;;;;;;40.10;21.73;;;9.50;97.90;;;;;;5075458;28;20047;-71
2022/01/05 05:46:40;;;;;;;40.03;22.57;;;9.50;97.80;;;;;;5075526;28;20025;-72
2022/01/05 05:49:05;;;;;;;39.97;23.30;;;9.60;97.90;;;;;;5075490;28;20020;-72
2022/01/05 05:51:31;;;;;;;42.67;24.60;;;9.60;97.80;;;;;;5075482;28;20369;-72
2022/01/05 05:53:57;;;;;;;56.15;26.05;;;9.60;97.80;;;;;;5075367;28;20374;-72
2022/01/05 05:56:22;;;;;;;44.10;23.80;;;9.60;97.80;;;;;;5075741;28;20078;-72
2022/01/05 05:58:49;;;;;;;45.27;23.43;;;9.50;97.70;;;;;;5075443;28;20028;-72
2022/01/05 06:01:15;;;;;;;38.37;22.83;;;9.60;97.70;;;;;;5075177;28;20500;-72
2022/01/05 06:03:41;;;;;;;58.73;25.50;;;9.60;97.60;;;;;;5074886;28;20033;-72
2022/01/05 06:06:06;;;;;;;41.47;22.83;;;9.60;97.70;;;;;;5075225;28;20032;-73
2022/01/05 06:08:32;;;;;;;34.67;16.55;;;9.60;97.70;;;;;;5075112;28;20020;-72
2022/01/05 06:10:58;;;;;;;44.00;21.00;;;9.60;98.20;;;;;;5075182;28;20029;-72
2022/01/05 06:13:23;;;;;;;58.23;23.67;;;9.60;99.20;;;;;;5074891;28;20029;-72
2022/01/05 06:15:49;;;;;;;42.00;21.50;;;9.70;99.10;;;;;;5074648;28;20017;-72
2022/01/05 06:18:15;;;;;;;39.10;21.65;;;9.70;98.80;;;;;;5073898;28;20035;-72
2022/01/05 06:20:40;;;;;;;38.00;20.98;;;9.70;98.60;;;;;;5074601;28;20044;-73
2022/01/05 06:23:06;;;;;;;41.35;20.73;;;9.70;98.40;;;;;;5074621;28;20522;-72
2022/01/05 06:25:32;;;;;;;45.33;21.30;;;9.70;98.40;;;;;;5074634;28;20078;-72
2022/01/05 06:27:57;;;;;;;50.53;21.02;;;9.80;98.40;;;;;;5074756;28;20028;-72
2022/01/05 06:30:23;;;;;;;40.53;19.60;;;9.70;98.30;;;;;;5075045;28;20049;-72
2022/01/05 06:32:49;;;;;;;37.63;18.60;;;9.70;98.20;;;;;;5074613;28;20021;-73
2022/01/05 06:35:15;;;;;;;41.13;20.05;;;9.80;98.10;;;;;;5074336;28;20036;-72
2022/01/05 06:37:41;;;;;;;48.17;20.75;;;9.80;98.10;;;;;;5074326;28;20059;-72
2022/01/05 06:40:08;;;;;;;32.10;18.07;;;9.80;98.30;;;;;;5074380;28;20029;-73
2022/01/05 06:42:34;;;;;;;35.47;14.38;;;9.80;98.50;;;;;;5074572;28;20031;-72
2022/01/05 06:45:00;;;;;;;32.10;11.95;;;9.80;98.90;;;;;;5074333;28;20066;-72
2022/01/05 06:47:25;;;;;;;39.00;14.80;;;9.80;99.50;;;;;;5073973;28;20020;-72
2022/01/05 06:49:51;;;;;;;32.40;13.90;;;9.90;99.60;;;;;;5074419;28;20086;-72
2022/01/05 06:52:17;;;;;;;39.53;16.58;;;9.90;99.90;;;;;;5074175;28;20031;-72
2022/01/05 06:54:42;;;;;;;40.67;16.10;;;9.90;99.90;;;;;;5073721;28;20354;-72
2022/01/05 06:57:08;;;;;;;136.50;93.95;;;10.00;99.90;;;;;;5074239;28;20020;-72
2022/01/05 06:59:35;;;;;;;62.42;29.92;;;10.00;99.90;;;;;;5074395;28;20024;-72
2022/01/05 07:02:01;;;;;;;47.85;16.70;;;10.00;99.90;;;;;;5073985;28;20096;-72
2022/01/05 07:04:27;;;;;;;50.05;18.15;;;10.00;99.90;;;;;;5073591;28;20056;-72
2022/01/05 07:06:52;;;;;;;29.77;8.57;;;10.10;99.90;;;;;;5074008;28;20058;-70
2022/01/05 07:09:18;;;;;;;30.70;8.90;;;10.10;99.90;;;;;;5073900;28;20071;-69
2022/01/05 07:11:44;;;;;;;35.88;11.15;;;10.10;99.90;;;;;;5073945;28;20375;-70
2022/01/05 07:14:09;;;;;;;25.98;6.80;;;10.10;99.90;;;;;;5073447;28;20381;-70
2022/01/05 07:16:35;;;;;;;26.95;8.48;;;10.20;99.90;;;;;;5073555;28;20021;-70
2022/01/05 07:19:01;;;;;;;18.52;6.43;;;10.20;99.90;;;;;;5073482;28;20024;-68
2022/01/05 07:21:27;;;;;;;20.90;6.47;;;10.20;99.90;;;;;;5073408;28;20065;-68
2022/01/05 07:23:52;;;;;;;27.42;6.72;;;10.30;99.90;;;;;;5073688;28;20097;-68
2022/01/05 07:26:18;;;;;;;22.65;8.43;;;10.30;99.90;;;;;;5073569;28;20035;-68
2022/01/05 07:28:45;;;;;;;29.42;6.45;;;10.30;99.90;;;;;;5072963;28;20032;-68
2022/01/05 07:31:10;;;;;;;16.13;6.43;;;10.30;99.90;;;;;;5073733;28;20430;-69
2022/01/05 07:33:36;;;;;;;30.25;5.85;;;10.40;99.90;;;;;;5073312;28;20032;-69
2022/01/05 07:36:02;;;;;;;27.65;7.10;;;10.40;99.90;;;;;;5073386;28;20029;-68
2022/01/05 07:38:29;;;;;;;21.55;5.72;;;10.40;99.90;;;;;;5073132;28;20073;-67
2022/01/05 07:40:55;;;;;;;26.42;6.18;;;10.40;99.90;;;;;;5073516;28;20028;-67
2022/01/05 07:43:22;;;;;;;24.23;6.13;;;10.50;99.90;;;;;;5073212;28;20107;-70
2022/01/05 07:45:48;;;;;;;20.58;5.38;;;10.50;99.90;;;;;;5073434;28;20108;-69
2022/01/05 07:48:14;;;;;;;31.17;7.10;;;10.50;99.90;;;;;;5073821;28;20025;-71
2022/01/05 07:50:40;;;;;;;25.20;5.53;;;10.50;99.90;;;;;;5073024;28;20058;-70
2022/01/05 07:53:06;;;;;;;26.35;5.63;;;10.60;99.90;;;;;;5071852;28;20039;-69
2022/01/05 07:55:32;;;;;;;27.08;6.05;;;10.60;99.90;;;;;;5073473;28;20020;-69
2022/01/05 07:57:59;;;;;;;22.70;5.20;;;10.60;99.90;;;;;;5073211;28;20032;-70
2022/01/05 08:00:25;;;;;;;27.77;6.47;;;10.60;99.90;;;;;;5073011;28;20523;-69
2022/01/05 08:02:51;;;;;;;24.08;5.40;;;10.60;99.90;;;;;;5072882;28;20043;-70
2022/01/05 08:05:16;;;;;;;26.88;6.13;;;10.60;99.90;;;;;;5072998;28;20036;-70
2022/01/05 08:07:42;;;;;;;21.27;4.93;;;10.70;99.90;;;;;;5073071;28;20102;-69
2022/01/05 08:10:08;;;;;;;22.02;5.70;;;10.70;99.90;;;;;;5073222;28;20123;-69
2022/01/05 08:12:34;;;;;;;17.63;4.60;;;10.70;99.90;;;;;;5073103;28;20052;-71
2022/01/05 08:14:59;;;;;;;20.73;5.38;;;10.70;99.90;;;;;;5072984;28;20021;-70
2022/01/05 08:17:25;;;;;;;32.47;6.93;;;10.70;99.90;;;;;;5073033;28;20029;-69
2022/01/05 08:19:51;;;;;;;28.02;7.65;;;10.80;99.90;;;;;;5072791;28;20045;-68
2022/01/05 08:22:16;;;;;;;52.85;25.63;;;10.80;99.90;;;;;;5072752;28;20119;-68
2022/01/05 08:24:42;;;;;;;88.97;39.92;;;10.80;99.90;;;;;;5072588;28;20032;-68
2022/01/05 08:27:08;;;;;;;41.08;17.15;;;10.80;99.80;;;;;;5072848;28;20024;-68
2022/01/05 08:29:33;;;;;;;132.30;51.05;;;10.80;99.60;;;;;;5072790;28;20028;-67
2022/01/05 08:32:02;;;;;;;134.77;60.83;;;10.80;99.40;;;;;;5073115;28;20461;-67
2022/01/05 08:34:29;;;;;;;24.45;6.13;;;10.80;99.40;;;;;;5072672;28;20377;-67
2022/01/05 08:36:56;;;;;;;43.30;18.83;;;10.80;99.10;;;;;;5072892;28;20020;-68
2022/01/05 08:39:23;;;;;;;155.32;75.80;;;10.80;99.00;;;;;;5072957;28;20469;-67
2022/01/05 08:41:49;;;;;;;140.18;83.80;;;10.80;99.00;;;;;;5076772;28;20031;-67
2022/01/05 08:44:15;;;;;;;22.02;11.80;;;10.90;99.10;;;;;;5076322;28;20036;-68
2022/01/05 08:46:41;;;;;;;24.75;5.90;;;10.90;99.00;;;;;;5076443;28;20035;-67
2022/01/05 08:49:07;;;;;;;29.33;7.03;;;10.90;98.90;;;;;;5076593;28;20032;-68
2022/01/05 08:51:32;;;;;;;22.20;5.43;;;10.90;98.80;;;;;;5076523;28;20025;-67
2022/01/05 08:53:58;;;;;;;27.17;5.70;;;10.90;98.60;;;;;;5075972;28;20472;-68
2022/01/05 08:56:25;;;;;;;27.38;5.93;;;11.00;98.40;;;;;;5075774;28;20021;-67
2022/01/05 08:58:51;;;;;;;17.75;5.07;;;11.00;98.30;;;;;;5076132;28;20039;-68
2022/01/05 09:01:17;;;;;;;28.25;5.78;;;11.00;98.30;;;;;;5076304;28;20024;-68
2022/01/05 09:03:42;;;;;;;24.85;5.75;;;11.00;98.30;;;;;;5075860;28;20484;-68
2022/01/05 09:06:08;;;;;;;29.50;6.15;;;11.00;98.30;;;;;;5076003;28;20028;-68
2022/01/05 09:08:35;;;;;;;27.92;5.75;;;11.00;98.50;;;;;;5075989;28;20029;-68
2022/01/05 09:11:02;;;;;;;24.98;5.90;;;11.00;98.60;;;;;;5075974;28;20020;-68
2022/01/05 09:13:28;;;;;;;25.05;5.80;;;11.00;98.70;;;;;;5075881;28;20496;-68
2022/01/05 09:15:54;;;;;;;25.77;6.40;;;11.00;98.90;;;;;;5076040;28;20056;-68
2022/01/05 09:18:19;;;;;;;24.80;6.45;;;11.00;99.00;;;;;;5075317;28;20060;-69
2022/01/05 09:20:45;;;;;;;30.70;7.20;;;11.00;99.00;;;;;;5074443;28;20108;-67
2022/01/05 09:23:11;;;;;;;26.77;6.22;;;11.00;99.00;;;;;;5075153;28;20035;-68
2022/01/05 09:25:37;;;;;;;22.52;5.80;;;11.00;99.00;;;;;;5075189;28;20101;-68
2022/01/05 09:28:03;;;;;;;25.17;6.65;;;11.00;98.90;;;;;;5075301;28;20427;-68
2022/01/05 09:30:29;;;;;;;22.25;6.22;;;11.00;99.00;;;;;;5075595;28;20048;-68
2022/01/05 09:32:55;;;;;;;22.15;5.70;;;11.00;98.80;;;;;;5075134;28;20028;-70
2022/01/05 09:35:24;;;;;;;20.20;6.70;;;11.10;98.50;;;;;;5075354;28;20077;-68
2022/01/05 09:38:06;;;;;;;18.95;4.90;;;11.00;98.30;;;;;;5075163;28;20025;-68
2022/01/05 09:43:16;;;;;;;16.42;4.78;;;11.10;98.10;;;;;;5074844;28;20040;-68
2022/01/05 09:46:04;;;;;;;18.33;4.28;;;11.10;97.80;;;;;;5074992;28;20024;-70
2022/01/05 09:48:48;;;;;;;16.85;3.55;;;11.10;97.70;;;;;;5074905;28;20419;-67
2022/01/05 09:51:19;;;;;;;17.25;3.95;;;11.10;97.70;;;;;;5075018;28;20054;-68
2022/01/05 09:53:45;;;;;;;15.65;4.15;;;11.10;97.70;;;;;;5074994;28;20025;-69
2022/01/05 09:56:11;;;;;;;15.20;4.30;;;11.20;97.60;;;;;;5074681;28;20025;-68
2022/01/05 09:58:40;;;;;;;15.80;4.00;;;11.20;97.50;;;;;;5074862;28;20020;-69
2022/01/05 10:01:05;;;;;;;12.88;4.30;;;11.30;97.20;;;;;;5074412;28;20021;-68
2022/01/05 10:03:31;;;;;;;14.32;4.18;;;11.30;96.80;;;;;;5074482;28;20036;-66
2022/01/05 10:05:57;;;;;;;18.20;4.53;;;11.30;96.60;;;;;;5075011;28;20029;-67
2022/01/05 10:08:23;;;;;;;11.43;4.40;;;11.40;96.20;;;;;;5071545;28;20059;-68
2022/01/05 10:10:48;;;;;;;11.30;3.92;;;11.40;96.10;;;;;;5072118;28;20027;-70
2022/01/05 10:13:16;;;;;;;16.23;3.67;;;11.50;96.00;;;;;;5071623;28;20473;-67
2022/01/05 10:15:41;;;;;;;17.67;3.33;;;11.50;95.80;;;;;;5074243;28;20021;-67
2022/01/05 10:18:18;;;;;;;16.67;4.05;;;11.50;95.60;;;;;;5073787;28;20028;-68
2022/01/05 10:20:58;;;;;;;10.80;3.35;;;11.60;95.10;;;;;;5069067;28;20111;-69
2022/01/05 10:23:50;;;;;;;12.93;3.53;;;11.60;95.20;;;;;;5071318;28;20032;-68
2022/01/05 10:26:26;;;;;;;11.55;3.58;;;11.70;95.10;;;;;;5073079;28;20032;-68
2022/01/05 10:28:54;;;;;;;13.98;3.47;;;11.70;94.90;;;;;;5074579;28;20108;-68
2022/01/05 10:31:23;;;;;;;15.85;4.25;;;11.70;94.90;;;;;;5074442;28;20016;-69
2022/01/05 10:33:49;;;;;;;12.88;4.65;;;11.70;94.70;;;;;;5073516;28;20544;-69
2022/01/05 10:36:15;;;;;;;12.05;4.13;;;11.70;94.80;;;;;;5073205;28;20063;-69
2022/01/05 10:38:51;;;;;;;12.10;3.83;;;11.80;94.80;;;;;;5074174;28;20040;-70
2022/01/05 10:41:19;;;;;;;25.17;10.35;;;11.80;94.90;;;;;;5073871;28;20073;-69
2022/01/05 10:44:07;;;;;;;28.27;3.38;;;11.80;95.00;;;;;;5072838;28;20032;-69
2022/01/05 10:46:39;;;;;;;28.02;7.28;;;11.90;94.90;;;;;;5073777;28;20035;-69
2022/01/05 10:49:06;;;;;;;17.48;4.30;;;11.90;95.00;;;;;;5074375;28;20029;-70
2022/01/05 10:51:33;;;;;;;13.95;4.38;;;11.90;95.30;;;;;;5074238;28;20059;-70
2022/01/05 10:54:14;;;;;;;18.77;3.90;;;11.90;95.40;;;;;;5074092;28;20048;-70
2022/01/05 10:56:41;;;;;;;11.85;3.58;;;11.90;95.60;;;;;;5074156;28;20395;-69
2022/01/05 10:59:06;;;;;;;14.85;4.55;;;11.80;95.60;;;;;;5072839;28;20112;-69
2022/01/05 11:01:33;;;;;;;14.07;3.53;;;11.80;96.20;;;;;;5072648;28;20095;-70
2022/01/05 11:04:13;;;;;;;20.50;5.63;;;11.80;96.00;;;;;;5072923;28;20037;-70
2022/01/05 11:07:03;;;;;;;14.90;3.85;;;11.80;96.10;;;;;;5073944;28;20024;-69
2022/01/05 11:09:31;;;;;;;15.98;3.92;;;11.80;96.10;;;;;;5073735;28;20044;-69
2022/01/05 11:11:58;;;;;;;17.83;5.28;;;11.80;96.40;;;;;;5073546;28;20082;-70
2022/01/05 11:14:34;;;;;;;14.20;4.25;;;11.80;96.70;;;;;;5073332;28;20063;-69
2022/01/05 11:17:05;;;;;;;10.85;3.63;;;11.70;96.50;;;;;;5072051;28;20112;-69
2022/01/05 11:19:33;;;;;;;8.90;3.13;;;11.80;96.60;;;;;;5073183;28;20119;-69
2022/01/05 11:22:08;;;;;;;59.28;24.00;;;11.80;95.80;;;;;;5073326;28;20115;-70
2022/01/05 11:24:35;;;;;;;13.00;3.50;;;11.80;95.90;;;;;;5072970;28;20067;-69
2022/01/05 11:27:02;;;;;;;16.65;5.40;;;11.80;95.70;;;;;;5073706;28;20438;-72
2022/01/05 11:29:28;;;;;;;13.02;3.70;;;11.80;95.70;;;;;;5073383;28;20102;-70
2022/01/05 11:31:56;;;;;;;17.83;3.80;;;11.80;95.40;;;;;;5073013;28;20472;-69
2022/01/05 11:34:22;;;;;;;11.57;2.88;;;11.80;94.90;;;;;;5073250;28;20477;-70
2022/01/05 11:36:48;;;;;;;19.27;6.72;;;11.80;95.00;;;;;;5073445;28;20520;-68
2022/01/05 11:39:14;;;;;;;11.75;3.70;;;11.90;94.80;;;;;;5073154;28;20107;-69
2022/01/05 11:41:48;;;;;;;11.40;4.68;;;11.90;95.00;;;;;;5073049;28;20062;-68
2022/01/05 11:44:15;;;;;;;30.55;9.93;;;12.00;94.40;;;;;;5072770;28;20044;-67
2022/01/05 11:46:43;;;;;;;25.52;8.90;;;12.00;94.50;;;;;;5072788;28;20028;-69
2022/01/05 11:49:14;;;;;;;11.95;4.15;;;12.00;94.60;;;;;;5072931;28;20032;-67
2022/01/05 11:51:42;;;;;;;17.88;5.43;;;12.10;94.20;;;;;;5073221;28;20081;-67
2022/01/05 11:54:23;;;;;;;9.43;3.03;;;12.10;94.40;;;;;;5073091;28;20044;-69
2022/01/05 11:56:55;;;;;;;14.15;3.28;;;12.10;94.20;;;;;;5073122;28;20044;-67
2022/01/05 11:59:25;;;;;;;14.00;3.25;;;12.20;93.60;;;;;;5073177;28;20082;-69
2022/01/05 12:01:59;;;;;;;12.55;3.92;;;12.20;93.40;;;;;;5072967;28;20021;-69
2022/01/05 12:04:25;;;;;;;13.40;4.20;;;12.20;93.40;;;;;;5072497;28;20032;-70
2022/01/05 12:06:51;;;;;;;9.95;3.78;;;12.30;93.50;;;;;;5072773;28;20111;-69
2022/01/05 12:09:23;;;;;;;13.07;3.47;;;12.30;93.40;;;;;;5073076;28;20160;-68
2022/01/05 12:11:49;;;;;;;15.57;3.75;;;12.30;93.30;;;;;;5073044;28;20557;-68
2022/01/05 12:14:21;;;;;;;12.18;3.63;;;12.30;93.20;;;;;;5072898;28;20062;-69
2022/01/05 12:16:55;;;;;;;13.55;4.28;;;12.40;92.70;;;;;;5077113;28;20036;-69
2022/01/05 12:19:22;;;;;;;12.23;3.75;;;12.40;93.00;;;;;;5076527;28;20044;-69
2022/01/05 12:21:53;;;;;;;14.13;3.53;;;12.40;92.70;;;;;;5077031;28;20457;-68
2022/01/05 12:24:19;;;;;;;10.55;3.33;;;12.40;92.40;;;;;;5076664;28;20036;-69
2022/01/05 12:27:05;;;;;;;16.80;3.92;;;12.40;92.30;;;;;;5077351;28;20411;-68
2022/01/05 12:29:31;;;;;;;12.20;3.75;;;12.50;92.60;;;;;;5076595;28;20063;-68
2022/01/05 12:32:00;;;;;;;14.25;3.95;;;12.50;92.20;;;;;;5076648;28;20465;-68
2022/01/05 12:34:58;;;;;;;11.02;3.72;;;12.50;92.10;;;;;;5077278;28;20373;-68
2022/01/05 12:37:54;;;;;;;16.70;4.00;;;12.50;91.90;;;;;;5076502;28;20042;-68
2022/01/05 12:40:33;;;;;;;12.23;4.20;;;12.50;91.90;;;;;;5076770;28;20384;-69